Time;durP1;ratioP1;P1;durP2;ratioP2;P2;SDS_P1;SDS_P2;PMS_P1;PMS_P2;Temp;Humidity;BMP_temperature;BMP_pressure;BME280_temperature;BME280_humidity;BME280_pressure;Samples;Min_cycle;Max_cycle;Signal;HPM_P1;HPM_P2
2022/01/14 00:02:08;;;;;;;;;;;1.80;99.90;;;0.28;100.00;102692.75;4963486;28;20318;-76
2022/01/14 00:04:36;;;;;;;;;;;1.00;99.90;;;0.38;100.00;102688.06;4945900;28;19930;-76
2022/01/14 00:07:04;;;;;;;;;;;1.10;99.90;;;0.35;100.00;102698.28;4963982;28;19941;-76
2022/01/14 00:09:32;;;;;;;;;;;1.20;99.90;;;0.36;100.00;102697.47;4953348;28;19956;-76
2022/01/14 00:12:03;;;;;;;;;;;1.20;99.90;;;0.40;100.00;102691.66;4944781;28;19931;-76
2022/01/14 00:14:43;;;;;;;;;;;1.00;99.90;;;0.44;100.00;102697.88;4943724;28;19931;-76
2022/01/14 00:17:12;;;;;;;;;;;1.20;99.90;;;0.33;100.00;102702.47;4944824;29;19930;-76
2022/01/14 00:19:40;;;;;;;;;;;1.70;99.90;;;0.37;100.00;102701.84;4960601;28;19930;-76
2022/01/14 00:22:11;;;;;;;;;;;1.20;99.90;;;0.32;100.00;102704.19;4944650;29;19938;-77
2022/01/14 00:33:05;;;;;;;;;;;0.80;99.90;;;0.17;100.00;102693.84;4944794;28;19931;-76
2022/01/14 00:35:34;;;;;;;;;;;1.10;99.90;;;0.16;100.00;102689.47;4946468;28;19935;-77
2022/01/14 00:38:02;;;;;;;;;;;1.10;99.90;;;0.11;100.00;102686.63;4961028;28;19926;-76
2022/01/14 00:40:29;;;;;;;;;;;1.00;99.90;;;0.11;100.00;102688.34;4961217;28;20333;-74
2022/01/14 00:42:56;;;;;;;;;;;1.00;99.90;;;0.06;100.00;102680.31;4943916;29;19930;-76
2022/01/14 00:45:23;;;;;;;;;;;1.00;99.90;;;0.05;100.00;102682.78;4944552;29;20665;-77
2022/01/14 00:47:50;;;;;;;;;;;0.90;99.90;;;0.03;100.00;102681.81;4961043;28;19937;-76
2022/01/14 00:50:18;;;;;;;;;;;2.40;99.90;;;0.04;100.00;102679.34;4944845;29;20050;-75
2022/01/14 00:52:46;;;;;;;;;;;0.80;99.90;;;0.02;100.00;102677.44;4944209;29;19936;-75
2022/01/14 00:55:16;;;;;;;;;;;0.90;99.90;;;-0.03;100.00;102675.50;4960202;28;19937;-76
2022/01/14 01:00:22;;;;;;;;;;;0.70;99.90;;;-0.09;100.00;102671.66;4959994;28;20401;-76
2022/01/14 01:02:49;;;;;;;;;;;0.80;99.90;;;-0.04;100.00;102667.63;4943955;29;20000;-75
2022/01/14 01:05:18;;;;;;;;;;;0.70;99.90;;;-0.20;100.00;102671.06;4948986;29;19984;-75
2022/01/14 01:07:55;;;;;;;;;;;0.80;99.90;;;-0.24;100.00;102667.41;4962806;28;19972;-75
2022/01/14 01:10:23;;;;;;;;;;;0.80;99.90;;;-0.18;100.00;102662.56;4930145;29;19934;-76
2022/01/14 01:15:18;;;;;;;;;;;0.60;99.90;;;-0.07;100.00;102677.81;4946486;28;19985;-77
2022/01/14 01:17:45;;;;;;;;;;;0.70;99.90;;;0.02;100.00;102678.34;4932110;28;19931;-76
2022/01/14 01:20:15;;;;;;;;;;;0.40;99.90;;;0.05;100.00;102675.94;4948059;29;19957;-76
2022/01/14 01:22:42;;;;;;;;;;;0.80;99.90;;;0.02;100.00;102683.53;4931821;29;20334;-76
2022/01/14 01:25:22;;;;;;;;;;;3.40;99.90;;;0.06;100.00;102677.72;4932631;29;19930;-75
2022/01/14 01:27:51;;;;;;;;;;;3.30;99.90;;;-0.01;100.00;102680.75;4932373;28;19938;-75
2022/01/14 01:32:58;;;;;;;;;;;0.80;99.90;;;-0.12;100.00;102681.84;4947130;29;19934;-76
2022/01/14 01:35:25;;;;;;;;;;;0.80;99.90;;;-0.06;100.00;102677.00;4947569;29;19930;-76
2022/01/14 01:37:54;;;;;;;;;;;2.10;99.90;;;-0.12;100.00;102680.13;4932071;28;19952;-75
2022/01/14 01:40:22;;;;;;;;;;;0.70;99.90;;;-0.18;100.00;102678.09;4961710;28;20302;-77
2022/01/14 01:42:50;;;;;;;;;;;-0.50;99.90;;;-0.07;100.00;102675.22;4965965;28;20505;-75
2022/01/14 01:45:24;;;;;;;;;;;0.70;99.90;;;-0.13;100.00;102673.19;4966440;28;19945;-76
2022/01/14 01:47:54;;;;;;;;;;;2.60;99.90;;;-0.20;100.00;102666.75;4966546;28;19931;-75
2022/01/14 01:50:26;;;;;;;;;;;2.40;99.90;;;-0.22;100.00;102663.19;4967534;28;19930;-77
2022/01/14 01:52:54;;;;;;;;;;;0.70;99.90;;;-0.35;100.00;102666.78;4950318;28;20631;-76
2022/01/14 01:55:22;;;;;;;;;;;0.50;99.90;;;-0.32;100.00;102668.63;4966610;28;19930;-76
2022/01/14 01:57:50;;;;;;;;;;;0.80;99.90;;;-0.34;100.00;102655.63;4935797;28;19930;-77
2022/01/14 02:00:21;;;;;;;;;;;1.20;99.90;;;-0.36;100.00;102654.66;4967521;28;19930;-76
2022/01/14 02:02:49;;;;;;;;;;;0.50;99.90;;;-0.34;100.00;102665.06;4966956;28;19930;-76
2022/01/14 02:05:17;;;;;;;;;;;1.90;99.90;;;-0.35;100.00;102650.34;4950840;28;19930;-76
2022/01/14 02:07:44;;;;;;;;;;;0.50;99.90;;;-0.41;100.00;102645.72;4946104;28;20013;-76
2022/01/14 02:10:11;;;;;;;;;;;0.30;99.90;;;-0.41;100.00;102650.88;4946849;28;19931;-76
2022/01/14 02:12:47;;;;;;;;;;;0.70;99.90;;;-0.41;100.00;102645.72;4945468;29;19930;-75
2022/01/14 02:15:27;;;;;;;;;;;0.30;99.90;;;-0.47;100.00;102641.09;4945765;29;20414;-76
2022/01/14 02:23:30;;;;;;;;;;;0.50;99.90;;;-0.49;100.00;102639.22;4945668;29;19930;-75
2022/01/14 02:25:57;;;;;;;;;;;0.40;99.90;;;-0.41;100.00;102640.53;4945712;28;20403;-75
2022/01/14 02:28:25;;;;;;;;;;;0.40;99.90;;;-0.51;100.00;102640.84;4946169;28;19930;-75
2022/01/14 02:30:52;;;;;;;;;;;1.90;99.90;;;-0.45;100.00;102633.41;4931229;29;20323;-77
2022/01/14 02:33:20;;;;;;;;;;;0.40;99.90;;;-0.53;100.00;102626.94;4945146;29;19930;-76
2022/01/14 02:35:48;;;;;;;;;;;1.40;99.90;;;-0.41;100.00;102631.91;4946379;29;19927;-75
2022/01/14 02:38:16;;;;;;;;;;;1.80;99.90;;;-0.44;100.00;102632.59;4946206;28;19980;-77
2022/01/14 02:40:45;;;;;;;;;;;0.40;99.90;;;-0.43;100.00;102624.03;4930435;29;19939;-76
2022/01/14 02:43:14;;;;;;;;;;;0.60;99.90;;;-0.45;100.00;102625.66;4945753;28;19934;-76
2022/01/14 02:45:50;;;;;;;;;;;0.40;99.90;;;-0.47;100.00;102630.75;4946153;29;20264;-76
2022/01/14 02:48:20;;;;;;;;;;;0.50;99.90;;;-0.52;100.00;102634.75;4946555;28;19930;-76
2022/01/14 02:53:41;;;;;;;;;;;2.30;99.90;;;-0.63;100.00;102617.72;4944825;29;19926;-75
2022/01/14 02:56:09;;;;;;;;;;;0.40;99.90;;;-0.73;100.00;102624.03;4947288;28;19938;-76
2022/01/14 02:58:37;;;;;;;;;;;0.20;99.90;;;-0.71;100.00;102625.00;4945667;28;19934;-75
2022/01/14 03:01:08;;;;;;;;;;;0.30;99.90;;;-0.75;100.00;102610.13;4945723;28;19930;-75
2022/01/14 03:03:36;;;;;;;;;;;0.20;99.90;;;-0.77;100.00;102616.91;4960507;28;20291;-76
2022/01/14 03:06:05;;;;;;;;;;;1.10;99.90;;;-0.78;100.00;102617.72;4961856;28;19937;-75
2022/01/14 03:08:33;;;;;;;;;;;0.10;99.90;;;-0.79;100.00;102611.63;4961702;28;19930;-75
2022/01/14 03:11:08;;;;;;;;;;;0.40;99.90;;;-0.85;100.00;102616.47;4961583;28;19941;-75
2022/01/14 03:13:36;;;;;;;;;;;1.00;99.90;;;-0.89;100.00;102619.66;4959596;28;19938;-75
2022/01/14 03:16:03;;;;;;;;;;;1.20;99.90;;;-0.84;100.00;102604.44;4945617;29;19934;-76
2022/01/14 03:18:37;;;;;;;;;;;0.90;99.90;;;-0.92;100.00;102604.88;4961481;28;19938;-76
2022/01/14 03:21:11;;;;;;;;;;;0.40;99.90;;;-0.85;100.00;102606.13;4960049;28;19941;-76
2022/01/14 03:23:46;;;;;;;;;;;0.70;99.90;;;-0.96;100.00;102602.91;4943639;28;19937;-76
2022/01/14 03:26:19;;;;;;;;;;;1.40;99.90;;;-1.00;100.00;102600.94;4960410;28;19930;-75
2022/01/14 03:28:47;;;;;;;;;;;-0.10;99.90;;;-0.96;100.00;102602.91;4961081;28;20013;-75
2022/01/14 03:31:15;;;;;;;;;;;0.20;99.90;;;-0.81;100.00;102607.19;4947045;28;19945;-75
2022/01/14 03:33:42;;;;;;;;;;;0.00;99.90;;;-0.84;100.00;102588.94;4960191;28;19926;-75
2022/01/14 03:36:09;;;;;;;;;;;0.10;99.90;;;-0.95;100.00;102607.28;4952305;28;19938;-75
2022/01/14 03:38:36;;;;;;;;;;;0.60;99.90;;;-0.87;100.00;102600.84;4945147;28;20384;-75
2022/01/14 03:41:04;;;;;;;;;;;0.20;99.90;;;-0.91;100.00;102606.66;4945119;29;20303;-75
2022/01/14 03:43:31;;;;;;;;;;;2.00;99.90;;;-0.83;100.00;102611.41;4953659;28;20007;-75
2022/01/14 03:45:58;;;;;;;;;;;0.10;99.90;;;-0.80;100.00;102608.97;4948543;28;19930;-75
2022/01/14 03:48:25;;;;;;;;;;;-0.10;99.90;;;-0.79;100.00;102609.06;4965800;28;20025;-75
2022/01/14 03:50:52;;;;;;;;;;;2.40;99.90;;;-0.76;100.00;102621.28;4964559;28;19926;-75
2022/01/14 03:53:20;;;;;;;;;;;1.10;99.90;;;-0.84;100.00;102607.91;4964322;28;19930;-75
2022/01/14 03:55:47;;;;;;;;;;;0.10;99.90;;;-0.81;100.00;102607.19;4948088;28;19936;-75
2022/01/14 03:58:33;;;;;;;;;;;0.00;99.90;;;-0.80;100.00;102601.22;4956597;28;19934;-77
2022/01/14 04:01:00;;;;;;;;;;;-0.90;99.90;;;-0.84;100.00;102612.19;4929078;29;19938;-76
2022/01/14 04:03:27;;;;;;;;;;;0.10;99.90;;;-0.82;100.00;102601.13;4944792;28;19992;-75
2022/01/14 04:05:54;;;;;;;;;;;0.20;99.90;;;-0.82;100.00;102595.06;4946248;28;20446;-75
2022/01/14 04:08:21;;;;;;;;;;;0.00;99.90;;;-0.86;100.00;102596.59;4946190;28;20311;-75
2022/01/14 04:10:51;;;;;;;;;;;0.80;99.90;;;-0.95;100.00;102594.34;4944805;29;19931;-75
2022/01/14 04:13:23;;;;;;;;;;;0.10;99.90;;;-1.02;100.00;102593.09;4943561;29;19935;-77
2022/01/14 04:15:50;;;;;;;;;;;1.40;99.90;;;-0.96;100.00;102602.91;4944893;29;20405;-76
2022/01/14 04:18:19;;;;;;;;;;;0.00;99.90;;;-1.01;100.00;102600.03;4928918;28;19949;-77
2022/01/14 04:20:48;;;;;;;;;;;0.00;99.90;;;-0.88;100.00;102591.31;4946113;29;20055;-76
2022/01/14 04:23:22;;;;;;;;;;;0.20;99.90;;;-0.91;100.00;102598.88;4928874;28;19930;-76
2022/01/14 04:25:54;;;;;;;;;;;0.10;99.90;;;-0.94;100.00;102596.13;4931064;29;19931;-76
2022/01/14 04:28:22;;;;;;;;;;;-0.10;99.90;;;-0.97;100.00;102589.88;4945881;28;20414;-76
2022/01/14 04:30:56;;;;;;;;;;;-0.20;99.90;;;-0.97;100.00;102590.78;4945784;29;19942;-76
2022/01/14 04:33:24;;;;;;;;;;;0.20;99.90;;;-0.93;100.00;102586.69;4913471;29;19936;-76
2022/01/14 04:35:54;;;;;;;;;;;-0.20;99.90;;;-0.97;100.00;102588.19;4929568;29;20330;-75
2022/01/14 04:38:22;;;;;;;;;;;0.10;99.90;;;-1.03;100.00;102596.47;4945766;28;19930;-76
2022/01/14 04:40:49;;;;;;;;;;;-0.20;99.90;;;-0.99;100.00;102594.97;4944797;29;19930;-75
2022/01/14 04:43:19;;;;;;;;;;;0.10;99.90;;;-1.06;100.00;102596.31;4944532;28;20315;-76
2022/01/14 04:48:37;;;;;;;;;;;0.10;99.90;;;-1.01;100.00;102600.03;4926522;28;19927;-76
2022/01/14 04:51:09;;;;;;;;;;;-0.30;99.90;;;-0.98;100.00;102596.75;4945724;28;19934;-76
2022/01/14 04:53:37;;;;;;;;;;;0.10;99.90;;;-1.04;100.00;102593.78;4943622;29;20372;-76
2022/01/14 04:56:04;;;;;;;;;;;-0.10;99.90;;;-0.97;100.00;102598.53;4944179;29;19943;-75
2022/01/14 04:58:32;;;;;;;;;;;0.00;99.90;;;-1.02;100.00;102587.91;4928404;29;20394;-76
2022/01/14 05:00:59;;;;;;;;;;;1.10;99.90;;;-1.02;100.00;102589.59;4913074;29;20345;-77
2022/01/14 05:03:26;;;;;;;;;;;-0.10;99.90;;;-0.97;100.00;102587.28;4928325;29;19930;-77
2022/01/14 05:05:56;;;;;;;;;;;-0.10;99.90;;;-1.00;100.00;102578.56;4944408;29;19927;-76
2022/01/14 05:08:27;;;;;;;;;;;-0.10;99.90;;;-1.00;100.00;102582.84;4944561;28;19930;-76
2022/01/14 05:13:27;;;;;;;;;;;0.60;99.90;;;-1.06;100.00;102577.31;4944296;28;19936;-76
2022/01/14 05:15:58;;;;;;;;;;;0.00;99.90;;;-1.07;100.00;102580.69;4943836;28;19937;-77
2022/01/14 05:18:25;;;;;;;;;;;-0.10;99.90;;;-1.08;100.00;102576.31;4961640;28;20624;-77
2022/01/14 05:20:52;;;;;;;;;;;-0.10;99.90;;;-1.14;100.00;102574.25;4960035;28;19927;-76
2022/01/14 05:23:19;;;;;;;;;;;0.60;99.90;;;-1.11;100.00;102570.97;4944052;28;20552;-76
2022/01/14 05:25:46;;;;;;;;;;;0.00;99.90;;;-1.14;100.00;102574.25;4943355;29;19926;-77
2022/01/14 05:28:13;;;;;;;;;;;-0.10;99.90;;;-1.08;100.00;102573.75;4999896;28;19936;-77
2022/01/14 05:30:40;;;;;;;;;;;-0.20;99.90;;;-1.07;100.00;102563.50;5047275;28;19935;-76
2022/01/14 05:33:10;;;;;;;;;;;-0.10;99.90;;;-1.11;100.00;102570.97;4927019;29;19927;-76
2022/01/14 05:35:37;;;;;;;;;;;-0.20;99.90;;;-1.09;100.00;102569.38;4927540;29;19934;-76
2022/01/14 05:38:07;;;;;;;;;;;0.10;99.90;;;-1.11;100.00;102570.97;4911460;29;19931;-75
2022/01/14 05:40:34;;;;;;;;;;;-0.20;99.90;;;-1.15;100.00;102573.41;4945232;28;19937;-76
2022/01/14 05:43:02;;;;;;;;;;;0.30;99.90;;;-1.16;100.00;102569.03;4946091;28;20561;-75
2022/01/14 05:45:29;;;;;;;;;;;-0.10;99.90;;;-1.12;100.00;102574.38;4939968;28;20299;-76
2022/01/14 05:47:56;;;;;;;;;;;0.10;99.90;;;-1.01;100.00;102570.75;4921074;28;19938;-75
2022/01/14 05:50:24;;;;;;;;;;;0.10;99.90;;;-1.01;100.00;102573.31;4944330;28;20010;-76
2022/01/14 05:52:51;;;;;;;;;;;-0.10;99.90;;;-0.96;100.00;102578.75;4943603;29;19930;-75
2022/01/14 05:55:20;;;;;;;;;;;2.00;99.90;;;-0.99;100.00;102576.88;4970170;28;20481;-75
2022/01/14 05:57:48;;;;;;;;;;;-0.20;99.90;;;-0.93;100.00;102571.19;4969265;28;19931;-75
2022/01/14 06:00:20;;;;;;;;;;;0.00;99.90;;;-0.93;100.00;102566.91;4975264;28;19938;-75
2022/01/14 06:02:50;;;;;;;;;;;0.00;99.90;;;-0.91;100.00;102567.88;4947180;28;19934;-76
2022/01/14 06:05:21;;;;;;;;;;;0.00;99.90;;;-0.84;100.00;102565.66;4945782;29;19930;-75
2022/01/14 06:07:48;;;;;;;;;;;0.50;99.90;;;-0.83;100.00;102562.28;4946080;29;20302;-75
2022/01/14 06:10:15;;;;;;;;;;;-0.10;99.90;;;-0.80;100.00;102567.63;4970808;28;20385;-75
2022/01/14 06:12:42;;;;;;;;;;;0.10;99.90;;;-0.78;100.00;102561.75;4946152;29;19950;-75
2022/01/14 06:15:11;;;;;;;;;;;-0.10;99.90;;;-0.78;100.00;102560.84;4930878;29;19927;-75
2022/01/14 06:17:38;;;;;;;;;;;0.10;99.90;;;-0.78;100.00;102564.34;4946180;28;20335;-74
2022/01/14 06:20:09;;;;;;;;;;;0.10;99.90;;;-0.78;100.00;102566.91;4946607;29;20484;-75
2022/01/14 06:22:36;;;;;;;;;;;0.10;99.90;;;-0.74;100.00;102558.53;4947388;28;20461;-75
2022/01/14 06:25:04;;;;;;;;;;;0.10;99.90;;;-0.72;100.00;102567.25;4947336;28;19930;-75
2022/01/14 06:27:32;;;;;;;;;;;0.20;99.90;;;-0.71;100.00;102560.38;4945930;29;19930;-75
2022/01/14 06:30:00;;;;;;;;;;;0.10;99.90;;;-0.71;100.00;102557.78;4930592;29;19937;-75
2022/01/14 06:32:27;;;;;;;;;;;2.90;99.90;;;-0.64;100.00;102559.03;4945794;29;19936;-75
2022/01/14 06:34:54;;;;;;;;;;;0.20;99.90;;;-0.65;100.00;102555.59;4946381;29;19930;-75
2022/01/14 06:37:23;;;;;;;;;;;0.00;99.90;;;-0.62;100.00;102558.34;4946307;29;19938;-75
2022/01/14 06:39:51;;;;;;;;;;;1.20;99.90;;;-0.65;100.00;102560.75;4946817;28;19934;-75
2022/01/14 06:42:18;;;;;;;;;;;0.30;99.90;;;-0.62;100.00;102565.22;4947692;29;19933;-75
2022/01/14 06:44:45;;;;;;;;;;;1.30;99.90;;;-0.59;100.00;102563.69;4929893;29;20443;-75
2022/01/14 06:47:12;;;;;;;;;;;2.70;99.90;;;-0.59;100.00;102560.22;4946574;29;19977;-75
2022/01/14 06:49:39;;;;;;;;;;;0.40;99.90;;;-0.55;100.00;102553.50;4950074;28;19931;-76
2022/01/14 06:52:06;;;;;;;;;;;0.40;99.90;;;-0.61;100.00;102548.91;4978582;28;19954;-75
2022/01/14 06:54:33;;;;;;;;;;;0.30;99.90;;;-0.64;100.00;102543.53;4962304;28;20033;-75
2022/01/14 06:57:00;;;;;;;;;;;0.40;99.90;;;-0.61;100.00;102556.66;4979273;28;20395;-76
2022/01/14 06:59:27;;;;;;;;;;;1.10;99.90;;;-0.59;100.00;102558.50;4978388;28;19931;-75
2022/01/14 07:01:54;;;;;;;;;;;0.40;99.90;;;-0.61;100.00;102560.13;4948752;28;19937;-75
2022/01/14 07:04:21;;;;;;;;;;;0.30;99.90;;;-0.56;100.00;102544.88;4947437;28;19937;-74
2022/01/14 07:06:48;;;;;;;;;;;0.40;99.90;;;-0.55;100.00;102550.91;4963242;28;19931;-75
2022/01/14 07:09:15;;;;;;;;;;;3.00;99.90;;;-0.51;100.00;102555.47;4962147;28;20058;-75
2022/01/14 07:11:46;;;;;;;;;;;0.50;99.90;;;-0.50;100.00;102552.97;4946653;28;19927;-75
2022/01/14 07:14:14;;;;;;;;;;;0.30;99.90;;;-0.51;100.00;102558.94;4961195;28;19949;-75
2022/01/14 07:16:41;;;;;;;;;;;2.10;99.90;;;-0.48;100.00;102556.53;4947143;28;19931;-76
2022/01/14 07:19:08;;;;;;;;;;;0.50;99.90;;;-0.43;100.00;102559.38;4961453;28;20696;-76
2022/01/14 07:21:35;;;;;;;;;;;0.50;99.90;;;-0.46;100.00;102557.53;4946787;28;20465;-76
2022/01/14 07:24:20;;;;;;;;;;;-1.70;99.90;;;-0.54;100.00;102560.50;4944974;28;19997;-76
2022/01/14 07:27:04;;;;;;;;;;;1.90;99.90;;;-0.41;100.00;102565.53;4958160;28;19926;-76
2022/01/14 07:29:31;;;;;;;;;;;0.40;99.90;;;-0.44;100.00;102565.34;4946284;28;19939;-76
2022/01/14 07:31:58;;;;;;;;;;;0.40;99.90;;;-0.45;100.00;102563.56;4944442;29;19938;-76
2022/01/14 07:34:26;;;;;;;;;;;1.70;99.90;;;-0.43;100.00;102562.88;4928576;29;19930;-76
2022/01/14 07:36:56;;;;;;;;;;;0.40;99.90;;;-0.36;100.00;102576.13;4946382;28;19931;-77
2022/01/14 07:39:23;;;;;;;;;;;0.40;99.90;;;-0.46;100.00;102569.56;4930257;29;19931;-77
2022/01/14 07:41:51;;;;;;;;;;;-0.90;99.90;;;-0.45;100.00;102569.66;4946723;29;19937;-76
2022/01/14 07:44:20;;;;;;;;;;;1.80;99.90;;;-0.43;100.00;102573.22;4946016;29;19937;-76
2022/01/14 07:46:47;;;;;;;;;;;0.50;99.90;;;-0.43;100.00;102575.81;4947092;29;19937;-76
2022/01/14 07:49:14;;;;;;;;;;;0.50;99.90;;;-0.48;100.00;102577.22;4930117;28;20710;-77
2022/01/14 07:51:42;;;;;;;;;;;1.60;99.90;;;-0.47;100.00;102575.53;4949002;28;19973;-75
2022/01/14 07:54:09;;;;;;;;;;;2.90;99.90;;;-0.44;100.00;102578.28;4946271;28;19930;-77
2022/01/14 07:56:39;;;;;;;;;;;0.50;99.90;;;-0.45;100.00;102584.28;4945549;29;19984;-76
2022/01/14 07:59:09;;;;;;;;;;;0.40;99.90;;;-0.39;100.00;102581.16;4945696;28;20574;-77
2022/01/14 08:01:36;;;;;;;;;;;0.60;99.90;;;-0.39;100.00;102581.16;4946283;29;19938;-76
2022/01/14 08:04:05;;;;;;;;;;;0.50;99.90;;;-0.35;100.00;102584.00;4928541;28;20041;-76
2022/01/14 08:06:34;;;;;;;;;;;0.60;99.90;;;-0.32;100.00;102588.44;4946062;28;20004;-76
2022/01/14 08:09:01;;;;;;;;;;;0.60;99.90;;;-0.30;100.00;102586.84;4946303;28;19941;-76
2022/01/14 08:11:28;;;;;;;;;;;2.70;99.90;;;-0.23;100.00;102586.38;4926608;29;19958;-76
2022/01/14 08:13:55;;;;;;;;;;;2.20;99.90;;;-0.21;100.00;102594.25;4926841;29;20450;-77
2022/01/14 08:16:22;;;;;;;;;;;0.80;99.90;;;-0.20;100.00;102593.44;4909236;29;20467;-77
2022/01/14 08:18:49;;;;;;;;;;;0.60;99.90;;;-0.20;100.00;102601.19;4939307;28;19953;-77
2022/01/14 08:21:16;;;;;;;;;;;0.90;99.90;;;-0.17;100.00;102596.19;4945465;28;19962;-76
2022/01/14 08:23:43;;;;;;;;;;;2.10;99.90;;;-0.12;100.00;102596.44;4975714;28;19941;-76
2022/01/14 08:26:10;;;;;;;;;;;0.80;99.90;;;-0.07;100.00;102592.41;4945557;28;20427;-76
2022/01/14 08:28:37;;;;;;;;;;;1.50;99.90;;;-0.08;100.00;102594.13;4976259;28;19931;-76
2022/01/14 08:31:04;;;;;;;;;;;0.80;99.90;;;0.00;100.00;102589.38;4976042;28;20048;-76
2022/01/14 08:33:31;;;;;;;;;;;1.20;99.90;;;0.00;100.00;102586.78;4975709;28;19948;-76
2022/01/14 08:36:04;;;;;;;;;;;2.00;99.90;;;0.03;100.00;102594.72;4973979;28;19934;-75
2022/01/14 08:38:31;;;;;;;;;;;1.30;99.90;;;0.03;100.00;102593.81;4945138;28;19942;-76
2022/01/14 08:40:58;;;;;;;;;;;2.20;99.90;;;0.04;100.00;102593.91;4944863;29;19930;-76
2022/01/14 08:43:25;;;;;;;;;;;1.00;99.90;;;0.05;100.00;102589.59;4927817;29;20380;-76
2022/01/14 08:45:53;;;;;;;;;;;0.90;99.90;;;0.06;100.00;102594.88;4945315;28;19930;-75
2022/01/14 08:48:20;;;;;;;;;;;1.00;99.90;;;0.07;100.00;102600.94;4945229;28;19945;-75
2022/01/14 08:50:47;;;;;;;;;;;1.70;99.90;;;0.10;100.00;102593.34;4944756;29;20030;-75
2022/01/14 08:53:14;;;;;;;;;;;1.10;99.90;;;0.19;100.00;102598.16;4943917;29;19931;-75
2022/01/14 08:55:41;;;;;;;;;;;1.20;99.90;;;0.25;100.00;102603.66;4944373;29;20548;-75
2022/01/14 08:58:09;;;;;;;;;;;1.20;99.90;;;0.27;100.00;102600.34;4945056;28;19938;-77
2022/01/14 09:00:36;;;;;;;;;;;1.50;99.90;;;0.30;100.00;102597.00;4949093;29;20354;-76
2022/01/14 09:03:03;;;;;;;;;;;1.20;99.90;;;0.33;100.00;102593.69;4928843;29;19933;-76
2022/01/14 09:05:31;;;;;;;;;;;2.60;99.90;;;0.36;100.00;102592.19;4947961;29;19931;-77
2022/01/14 09:07:59;;;;;;;;;;;2.10;99.90;;;0.37;100.00;102587.88;4932771;28;20033;-76
2022/01/14 09:10:26;;;;;;;;;;;1.00;99.90;;;0.39;100.00;102588.84;4948241;29;19931;-77
2022/01/14 09:12:53;;;;;;;;;;;3.10;99.90;;;0.42;100.00;102587.31;4963050;28;19958;-77
2022/01/14 09:15:20;;;;;;;;;;;1.10;99.90;;;0.45;100.00;102599.56;4959404;28;19933;-77
2022/01/14 09:17:47;;;;;;;;;;;2.90;99.90;;;0.58;100.00;102605.41;4946056;28;19931;-77
2022/01/14 09:20:15;;;;;;;;;;;1.20;99.90;;;0.64;100.00;102598.84;4938716;29;19931;-76
2022/01/14 09:22:49;;;;;;;;;;;4.60;99.90;;;0.65;100.00;102594.53;4947559;28;19934;-76
2022/01/14 09:25:20;;;;;;;;;;;1.70;99.90;;;0.61;100.00;102598.66;4946559;29;19934;-76
2022/01/14 09:27:49;;;;;;;;;;;1.40;99.90;;;0.66;100.00;102593.72;4946109;29;20026;-75
2022/01/14 09:30:16;;;;;;;;;;;1.60;99.90;;;0.68;100.00;102592.09;4932366;29;19938;-76
2022/01/14 09:32:43;;;;;;;;;;;1.40;99.90;;;0.72;100.00;102590.56;4955910;28;19957;-75
2022/01/14 09:35:13;;;;;;;;;;;1.20;99.90;;;0.67;100.00;102592.91;4953659;28;20400;-77
2022/01/14 09:37:49;;;;;;;;;;;4.10;99.90;;;0.68;100.00;102593.00;4947825;29;19970;-77
2022/01/14 09:40:17;;;;;;;;;;;1.50;99.90;;;0.69;100.00;102596.47;4942502;28;19935;-76
2022/01/14 09:42:49;;;;;;;;;;;2.30;99.90;;;0.71;100.00;102592.28;4979264;28;20284;-76
2022/01/14 09:45:18;;;;;;;;;;;1.30;99.90;;;0.78;100.00;102586.59;4979034;28;19930;-76
2022/01/14 09:47:49;;;;;;;;;;;1.60;99.90;;;0.79;100.00;102593.56;4963003;28;19930;-76
2022/01/14 09:50:17;;;;;;;;;;;1.70;99.90;;;0.76;100.00;102593.41;4948434;28;19938;-76
2022/01/14 09:52:47;;;;;;;;;;;4.00;99.90;;;0.77;100.00;102587.41;4948070;28;20482;-77
2022/01/14 09:55:14;;;;;;;;;;;1.40;99.90;;;0.81;100.00;102597.13;4948272;28;20375;-77
2022/01/14 09:57:41;;;;;;;;;;;1.70;99.90;;;0.85;100.00;102596.47;4946396;28;19931;-76
2022/01/14 10:00:08;;;;;;;;;;;4.70;99.90;;;0.93;100.00;102595.97;4946475;29;19930;-76
2022/01/14 10:02:38;;;;;;;;;;;1.70;99.90;;;0.99;100.00;102591.09;4977716;28;20303;-76
2022/01/14 10:05:08;;;;;;;;;;;1.70;99.90;;;0.95;100.00;102595.25;4977335;28;20419;-76
2022/01/14 10:07:35;;;;;;;;;;;1.90;99.90;;;0.88;100.00;102600.91;4965641;28;19980;-77
2022/01/14 10:10:23;;;;;;;;;;;4.30;99.90;;;0.91;100.00;102593.28;4963295;28;19976;-78
2022/01/14 10:12:50;;;;;;;;;;;1.70;99.90;;;0.96;100.00;102598.72;4962300;28;19934;-78
2022/01/14 10:15:17;;;;;;;;;;;1.60;99.90;;;0.96;100.00;102598.72;4962023;28;19977;-78
2022/01/14 10:17:45;;;;;;;;;;;3.30;99.90;;;0.94;100.00;102608.13;4978615;28;20017;-78
2022/01/14 10:20:17;;;;;;;;;;;2.50;99.90;;;0.96;100.00;102599.63;4963379;28;19930;-77
2022/01/14 10:22:47;;;;;;;;;;;3.40;99.90;;;1.11;100.00;102601.22;4979501;28;20004;-78
2022/01/14 10:25:19;;;;;;;;;;;1.80;99.90;;;1.04;100.00;102593.94;4962883;28;20292;-78
2022/01/14 10:27:48;;;;;;;;;;;0.00;99.90;;;1.07;100.00;102588.91;4963964;28;19956;-78
2022/01/14 10:30:19;;;;;;;;;;;1.90;99.90;;;1.10;100.00;102584.75;4947270;28;20021;-76
2022/01/14 10:33:08;;;;;;;;;;;3.60;99.90;;;1.06;100.00;102575.06;4948221;28;19984;-77
2022/01/14 10:35:45;;;;;;;;;;;2.00;99.90;;;1.15;100.00;102569.44;4975822;28;19977;-80
2022/01/14 10:38:15;;;;;;;;;;;2.10;99.90;;;1.21;100.00;102574.94;4985925;28;19934;-81
2022/01/14 10:40:46;;;;;;;;;;;2.70;99.90;;;1.17;100.00;102570.41;4937255;28;19938;-79
2022/01/14 10:43:15;;;;;;;;;;;2.10;99.90;;;1.16;100.00;102563.44;4940504;28;19962;-79
2022/01/14 10:45:54;;;;;;;;;;;1.80;99.90;;;1.12;100.00;102556.34;4934894;29;19936;-79
2022/01/14 10:48:31;;;;;;;;;;;2.10;99.90;;;1.20;100.00;102543.75;4929853;29;19931;-78
2022/01/14 10:51:01;;;;;;;;;;;1.90;99.90;;;1.27;100.00;102540.63;4914544;29;20025;-78
2022/01/14 10:53:33;;;;;;;;;;;2.00;99.90;;;1.29;100.00;102541.59;4926859;29;20466;-79
2022/01/14 10:56:09;;;;;;;;;;;1.90;99.90;;;1.30;100.00;102535.59;4947649;29;19966;-79
2022/01/14 10:58:38;;;;;;;;;;;2.20;99.90;;;1.30;100.00;102530.41;4948280;29;20020;-79
2022/01/14 11:01:07;;;;;;;;;;;2.20;99.90;;;1.34;100.00;102524.56;4916620;28;20254;-77
2022/01/14 11:03:38;;;;;;;;;;;2.10;99.90;;;1.44;100.00;102523.31;4916546;29;19977;-78
2022/01/14 11:06:28;;;;;;;;;;;2.40;99.90;;;1.39;100.00;102519.59;4927873;29;19941;-79
2022/01/14 11:09:00;;;;;;;;;;;2.20;99.90;;;1.37;100.00;102514.34;4929996;29;20628;-79
2022/01/14 11:11:29;;;;;;;;;;;2.40;99.90;;;1.39;100.00;102517.00;4930991;29;19931;-78
2022/01/14 11:13:57;;;;;;;;;;;3.90;99.90;;;1.44;100.00;102514.63;4946625;29;20556;-79
2022/01/14 11:16:24;;;;;;;;;;;2.10;99.90;;;1.33;100.00;102508.91;4931317;29;19937;-80
2022/01/14 11:18:58;;;;;;;;;;;4.50;99.90;;;1.38;100.00;102505.75;4932132;29;19930;-79
2022/01/14 11:24:37;;;;;;;;;;;2.10;99.90;;;1.36;100.00;102502.19;4946107;29;20318;-80
2022/01/14 11:27:11;;;;;;;;;;;2.10;99.90;;;1.49;100.00;102508.84;4931634;29;20021;-77
2022/01/14 11:29:42;;;;;;;;;;;2.30;99.90;;;1.54;100.00;102506.47;4933912;28;19931;-80
2022/01/14 11:32:10;;;;;;;;;;;2.20;99.90;;;1.63;100.00;102506.03;4932487;29;19972;-79
2022/01/14 11:34:46;;;;;;;;;;;0.80;99.90;;;1.61;100.00;102490.38;4915226;29;19938;-79
2022/01/14 11:37:17;;;;;;;;;;;2.50;99.90;;;1.46;100.00;102487.94;4914528;29;19926;-79
2022/01/14 11:39:55;;;;;;;;;;;0.60;99.90;;;1.57;100.00;102485.00;4915806;28;19930;-79
2022/01/14 11:42:50;;;;;;;;;;;2.30;99.90;;;1.66;100.00;102488.91;4931072;29;19988;-80
2022/01/14 11:45:19;;;;;;;;;;;2.30;99.90;;;1.68;100.00;102491.53;4953552;28;19937;-79
2022/01/14 11:47:50;;;;;;;;;;;2.20;99.90;;;1.67;100.00;102485.47;4934664;29;20633;-79
2022/01/14 11:50:23;;;;;;;;;;;2.40;99.90;;;1.81;100.00;102495.63;4935582;29;19956;-81
2022/01/14 11:52:51;;;;;;;;;;;2.80;99.90;;;1.74;100.00;102484.06;4948081;28;20489;-82
2022/01/14 11:55:21;;;;;;;;;;;2.50;99.90;;;1.78;100.00;102490.25;4931772;29;19927;-79